sensor_id;sensor_type;location;lat;lon;timestamp;pressure;altitude;pressure_sealevel;temperature;humidity
78892;BME280;68368;51.728;5.248;2023-05-20T00:00:00;102439.33;;;11.10;66.17
78892;BME280;68368;51.728;5.248;2023-05-20T00:02:03;102438.08;;;11.09;66.40
78892;BME280;68368;51.728;5.248;2023-05-20T00:04:06;102437.15;;;11.07;66.27
78892;BME280;68368;51.728;5.248;2023-05-20T00:06:10;102439.98;;;11.05;66.40
78892;BME280;68368;51.728;5.248;2023-05-20T00:08:13;102442.08;;;11.03;66.74
78892;BME280;68368;51.728;5.248;2023-05-20T00:10:16;102444.39;;;11.03;66.84
78892;BME280;68368;51.728;5.248;2023-05-20T00:12:20;102446.85;;;11.02;66.83
78892;BME280;68368;51.728;5.248;2023-05-20T00:14:23;102447.91;;;11.01;67.07
78892;BME280;68368;51.728;5.248;2023-05-20T00:16:26;102448.26;;;11.00;66.67
78892;BME280;68368;51.728;5.248;2023-05-20T00:18:29;102450.53;;;10.98;66.88
78892;BME280;68368;51.728;5.248;2023-05-20T00:20:33;102445.36;;;10.96;66.86
78892;BME280;68368;51.728;5.248;2023-05-20T00:22:36;102444.80;;;10.95;67.02
78892;BME280;68368;51.728;5.248;2023-05-20T00:24:39;102446.70;;;10.91;67.08
78892;BME280;68368;51.728;5.248;2023-05-20T00:26:42;102443.29;;;10.88;67.55
78892;BME280;68368;51.728;5.248;2023-05-20T00:28:45;102442.00;;;10.85;67.84
78892;BME280;68368;51.728;5.248;2023-05-20T00:30:49;102443.21;;;10.82;67.54
78892;BME280;68368;51.728;5.248;2023-05-20T00:32:56;102441.73;;;10.80;67.96
78892;BME280;68368;51.728;5.248;2023-05-20T00:35:00;102442.96;;;10.78;67.90
78892;BME280;68368;51.728;5.248;2023-05-20T00:37:03;102441.14;;;10.75;68.07
78892;BME280;68368;51.728;5.248;2023-05-20T00:39:07;102446.60;;;10.73;68.37
78892;BME280;68368;51.728;5.248;2023-05-20T00:41:10;102444.61;;;10.70;68.39
78892;BME280;68368;51.728;5.248;2023-05-20T00:43:13;102444.23;;;10.68;68.47
78892;BME280;68368;51.728;5.248;2023-05-20T00:45:17;102444.02;;;10.65;68.81
78892;BME280;68368;51.728;5.248;2023-05-20T00:47:22;102445.77;;;10.63;68.96
78892;BME280;68368;51.728;5.248;2023-05-20T00:49:27;102440.23;;;10.62;68.75
78892;BME280;68368;51.728;5.248;2023-05-20T00:51:31;102438.61;;;10.60;69.00
78892;BME280;68368;51.728;5.248;2023-05-20T00:53:36;102435.40;;;10.59;69.01
78892;BME280;68368;51.728;5.248;2023-05-20T00:55:39;102433.41;;;10.57;69.26
78892;BME280;68368;51.728;5.248;2023-05-20T00:57:43;102426.27;;;10.55;69.06
78892;BME280;68368;51.728;5.248;2023-05-20T00:59:47;102423.91;;;10.52;69.02
78892;BME280;68368;51.728;5.248;2023-05-20T01:01:51;102422.98;;;10.49;69.26
78892;BME280;68368;51.728;5.248;2023-05-20T01:03:54;102422.56;;;10.45;69.67
78892;BME280;68368;51.728;5.248;2023-05-20T01:05:57;102423.05;;;10.41;69.53
78892;BME280;68368;51.728;5.248;2023-05-20T01:08:00;102426.91;;;10.39;69.53
78892;BME280;68368;51.728;5.248;2023-05-20T01:10:05;102422.97;;;10.36;70.01
78892;BME280;68368;51.728;5.248;2023-05-20T01:12:13;102425.40;;;10.34;70.04
78892;BME280;68368;51.728;5.248;2023-05-20T01:14:19;102423.05;;;10.31;70.09
78892;BME280;68368;51.728;5.248;2023-05-20T01:16:26;102420.71;;;10.29;70.22
78892;BME280;68368;51.728;5.248;2023-05-20T01:18:31;102417.70;;;10.29;70.36
78892;BME280;68368;51.728;5.248;2023-05-20T01:20:35;102418.55;;;10.27;70.54
78892;BME280;68368;51.728;5.248;2023-05-20T01:22:45;102422.54;;;10.24;70.20
78892;BME280;68368;51.728;5.248;2023-05-20T01:24:48;102419.49;;;10.22;70.40
78892;BME280;68368;51.728;5.248;2023-05-20T01:26:51;102416.80;;;10.20;70.37
78892;BME280;68368;51.728;5.248;2023-05-20T01:28:55;102419.98;;;10.18;70.72
78892;BME280;68368;51.728;5.248;2023-05-20T01:31:01;102417.84;;;10.18;71.06
78892;BME280;68368;51.728;5.248;2023-05-20T01:33:09;102415.55;;;10.19;71.02
78892;BME280;68368;51.728;5.248;2023-05-20T01:35:18;102412.00;;;10.20;71.02
78892;BME280;68368;51.728;5.248;2023-05-20T01:37:23;102407.73;;;10.19;70.81
78892;BME280;68368;51.728;5.248;2023-05-20T01:39:27;102407.37;;;10.19;71.32
78892;BME280;68368;51.728;5.248;2023-05-20T01:41:32;102405.77;;;10.18;71.16
78892;BME280;68368;51.728;5.248;2023-05-20T01:43:38;102403.27;;;10.17;70.76
78892;BME280;68368;51.728;5.248;2023-05-20T01:45:43;102405.75;;;10.17;71.08
78892;BME280;68368;51.728;5.248;2023-05-20T01:47:47;102405.95;;;10.18;71.48
78892;BME280;68368;51.728;5.248;2023-05-20T01:49:50;102405.26;;;10.19;71.22
78892;BME280;68368;51.728;5.248;2023-05-20T01:51:53;102402.41;;;10.19;71.37
78892;BME280;68368;51.728;5.248;2023-05-20T01:53:56;102396.89;;;10.17;71.36
78892;BME280;68368;51.728;5.248;2023-05-20T01:56:03;102393.67;;;10.16;71.20
78892;BME280;68368;51.728;5.248;2023-05-20T01:58:08;102395.95;;;10.15;71.56
78892;BME280;68368;51.728;5.248;2023-05-20T02:00:15;102397.36;;;10.14;71.54
78892;BME280;68368;51.728;5.248;2023-05-20T02:02:18;102394.18;;;10.15;71.74
78892;BME280;68368;51.728;5.248;2023-05-20T02:04:21;102392.58;;;10.15;71.82
78892;BME280;68368;51.728;5.248;2023-05-20T02:06:24;102391.48;;;10.12;71.68
78892;BME280;68368;51.728;5.248;2023-05-20T02:08:28;102391.79;;;10.10;71.94
78892;BME280;68368;51.728;5.248;2023-05-20T02:10:34;102392.64;;;10.08;71.90
78892;BME280;68368;51.728;5.248;2023-05-20T02:12:38;102390.84;;;10.06;72.40
78892;BME280;68368;51.728;5.248;2023-05-20T02:14:41;102390.33;;;10.07;72.43
78892;BME280;68368;51.728;5.248;2023-05-20T02:16:44;102392.11;;;10.09;72.38
78892;BME280;68368;51.728;5.248;2023-05-20T02:18:50;102387.14;;;10.08;72.57
78892;BME280;68368;51.728;5.248;2023-05-20T02:20:53;102389.94;;;10.06;72.91
78892;BME280;68368;51.728;5.248;2023-05-20T02:22:56;102388.68;;;10.04;73.13
78892;BME280;68368;51.728;5.248;2023-05-20T02:24:59;102390.10;;;10.04;73.47
78892;BME280;68368;51.728;5.248;2023-05-20T02:27:03;102393.67;;;10.06;73.31
78892;BME280;68368;51.728;5.248;2023-05-20T02:29:06;102386.25;;;10.08;73.33
78892;BME280;68368;51.728;5.248;2023-05-20T02:31:09;102380.98;;;10.11;73.39
78892;BME280;68368;51.728;5.248;2023-05-20T02:33:15;102379.23;;;10.12;73.10
78892;BME280;68368;51.728;5.248;2023-05-20T02:35:19;102375.70;;;10.13;73.36
78892;BME280;68368;51.728;5.248;2023-05-20T02:37:22;102370.00;;;10.12;73.41
78892;BME280;68368;51.728;5.248;2023-05-20T02:39:25;102369.50;;;10.14;73.24
78892;BME280;68368;51.728;5.248;2023-05-20T02:41:28;102370.56;;;10.14;73.53
78892;BME280;68368;51.728;5.248;2023-05-20T02:43:35;102373.59;;;10.14;73.47
78892;BME280;68368;51.728;5.248;2023-05-20T02:45:38;102376.27;;;10.15;73.70
78892;BME280;68368;51.728;5.248;2023-05-20T02:47:41;102383.02;;;10.15;73.74
78892;BME280;68368;51.728;5.248;2023-05-20T02:49:45;102381.94;;;10.15;73.75
78892;BME280;68368;51.728;5.248;2023-05-20T02:51:48;102380.16;;;10.15;73.73
78892;BME280;68368;51.728;5.248;2023-05-20T02:53:51;102379.30;;;10.16;73.82
78892;BME280;68368;51.728;5.248;2023-05-20T02:55:54;102379.83;;;10.16;73.91
78892;BME280;68368;51.728;5.248;2023-05-20T02:57:58;102378.59;;;10.17;73.73
78892;BME280;68368;51.728;5.248;2023-05-20T03:00:03;102374.85;;;10.16;73.89
78892;BME280;68368;51.728;5.248;2023-05-20T03:02:08;102375.19;;;10.15;74.09
78892;BME280;68368;51.728;5.248;2023-05-20T03:04:11;102375.36;;;10.15;74.02
78892;BME280;68368;51.728;5.248;2023-05-20T03:06:15;102373.79;;;10.15;74.13
78892;BME280;68368;51.728;5.248;2023-05-20T03:08:19;102374.15;;;10.16;74.34
78892;BME280;68368;51.728;5.248;2023-05-20T03:10:23;102374.71;;;10.17;73.88
78892;BME280;68368;51.728;5.248;2023-05-20T03:12:26;102377.89;;;10.17;74.04
78892;BME280;68368;51.728;5.248;2023-05-20T03:14:29;102374.49;;;10.16;74.34
78892;BME280;68368;51.728;5.248;2023-05-20T03:16:32;102373.96;;;10.15;74.27
78892;BME280;68368;51.728;5.248;2023-05-20T03:18:36;102376.63;;;10.16;74.10
78892;BME280;68368;51.728;5.248;2023-05-20T03:20:40;102374.66;;;10.14;74.30
78892;BME280;68368;51.728;5.248;2023-05-20T03:22:45;102377.83;;;10.13;74.62
78892;BME280;68368;51.728;5.248;2023-05-20T03:24:49;102381.16;;;10.11;74.47
78892;BME280;68368;51.728;5.248;2023-05-20T03:26:52;102380.42;;;10.10;74.71
78892;BME280;68368;51.728;5.248;2023-05-20T03:28:56;102382.34;;;10.08;74.83
78892;BME280;68368;51.728;5.248;2023-05-20T03:31:00;102381.80;;;10.07;74.56
78892;BME280;68368;51.728;5.248;2023-05-20T03:33:04;102380.71;;;10.05;74.91
78892;BME280;68368;51.728;5.248;2023-05-20T03:35:08;102380.14;;;10.04;74.67
78892;BME280;68368;51.728;5.248;2023-05-20T03:37:12;102380.81;;;10.01;74.99
78892;BME280;68368;51.728;5.248;2023-05-20T03:39:15;102379.73;;;10.01;75.09
78892;BME280;68368;51.728;5.248;2023-05-20T03:41:19;102379.72;;;9.99;75.28
78892;BME280;68368;51.728;5.248;2023-05-20T03:43:22;102380.61;;;9.99;75.03
78892;BME280;68368;51.728;5.248;2023-05-20T03:45:26;102376.33;;;9.98;74.92
78892;BME280;68368;51.728;5.248;2023-05-20T03:47:29;102377.77;;;9.99;75.16
78892;BME280;68368;51.728;5.248;2023-05-20T03:49:34;102372.13;;;10.01;75.28
78892;BME280;68368;51.728;5.248;2023-05-20T03:51:37;102372.34;;;10.04;75.26
78892;BME280;68368;51.728;5.248;2023-05-20T03:53:40;102369.36;;;10.06;75.01
78892;BME280;68368;51.728;5.248;2023-05-20T03:55:43;102371.94;;;10.11;75.05
78892;BME280;68368;51.728;5.248;2023-05-20T03:57:47;102375.30;;;10.22;74.95
78892;BME280;68368;51.728;5.248;2023-05-20T03:59:52;102369.43;;;10.30;74.78
78892;BME280;68368;51.728;5.248;2023-05-20T04:01:55;102371.52;;;10.39;74.32
78892;BME280;68368;51.728;5.248;2023-05-20T04:03:59;102372.90;;;10.48;73.96
78892;BME280;68368;51.728;5.248;2023-05-20T04:06:02;102373.77;;;10.58;73.78
78892;BME280;68368;51.728;5.248;2023-05-20T04:08:06;102373.63;;;10.74;73.33
78892;BME280;68368;51.728;5.248;2023-05-20T04:10:10;102372.83;;;10.93;72.86
78892;BME280;68368;51.728;5.248;2023-05-20T04:12:14;102369.66;;;11.11;72.37
78892;BME280;68368;51.728;5.248;2023-05-20T04:14:17;102368.06;;;11.41;71.89
78892;BME280;68368;51.728;5.248;2023-05-20T04:16:20;102369.77;;;11.85;70.83
78892;BME280;68368;51.728;5.248;2023-05-20T04:18:23;102368.02;;;12.30;69.42
78892;BME280;68368;51.728;5.248;2023-05-20T04:20:27;102369.73;;;12.74;68.40
78892;BME280;68368;51.728;5.248;2023-05-20T04:22:33;102369.95;;;13.19;66.82
78892;BME280;68368;51.728;5.248;2023-05-20T04:24:36;102367.92;;;13.52;65.77
78892;BME280;68368;51.728;5.248;2023-05-20T04:26:39;102368.50;;;13.73;65.41
78892;BME280;68368;51.728;5.248;2023-05-20T04:28:43;102365.84;;;13.89;64.03
78892;BME280;68368;51.728;5.248;2023-05-20T04:30:46;102364.40;;;13.79;64.12
78892;BME280;68368;51.728;5.248;2023-05-20T04:32:50;102362.77;;;13.56;64.20
78892;BME280;68368;51.728;5.248;2023-05-20T04:34:53;102365.45;;;13.63;64.16
78892;BME280;68368;51.728;5.248;2023-05-20T04:36:57;102366.35;;;14.36;62.78
78892;BME280;68368;51.728;5.248;2023-05-20T04:39:00;102368.17;;;15.05;60.41
78892;BME280;68368;51.728;5.248;2023-05-20T04:41:06;102372.13;;;15.69;59.30
78892;BME280;68368;51.728;5.248;2023-05-20T04:43:09;102369.64;;;16.35;58.36
78892;BME280;68368;51.728;5.248;2023-05-20T04:45:12;102366.84;;;16.98;56.29
78892;BME280;68368;51.728;5.248;2023-05-20T04:47:16;102364.14;;;17.52;54.65
78892;BME280;68368;51.728;5.248;2023-05-20T04:49:20;102365.07;;;17.98;52.66
78892;BME280;68368;51.728;5.248;2023-05-20T04:51:25;102363.52;;;18.35;51.13
78892;BME280;68368;51.728;5.248;2023-05-20T04:53:28;102365.52;;;18.73;49.91
78892;BME280;68368;51.728;5.248;2023-05-20T04:55:32;102361.96;;;19.07;49.68
78892;BME280;68368;51.728;5.248;2023-05-20T04:57:35;102354.30;;;19.45;48.41
78892;BME280;68368;51.728;5.248;2023-05-20T04:59:38;102359.79;;;19.81;47.28
78892;BME280;68368;51.728;5.248;2023-05-20T05:01:41;102351.30;;;20.17;46.54
78892;BME280;68368;51.728;5.248;2023-05-20T05:03:44;102352.79;;;20.50;45.59
78892;BME280;68368;51.728;5.248;2023-05-20T05:05:47;102347.27;;;20.81;43.91
78892;BME280;68368;51.728;5.248;2023-05-20T05:07:51;102348.05;;;21.02;43.29
78892;BME280;68368;51.728;5.248;2023-05-20T05:09:54;102352.89;;;21.22;43.29
78892;BME280;68368;51.728;5.248;2023-05-20T05:11:59;102352.96;;;21.44;42.50
78892;BME280;68368;51.728;5.248;2023-05-20T05:14:02;102349.46;;;21.57;41.37
78892;BME280;68368;51.728;5.248;2023-05-20T05:16:06;102350.04;;;21.62;40.84
78892;BME280;68368;51.728;5.248;2023-05-20T05:18:10;102349.29;;;21.63;40.03
78892;BME280;68368;51.728;5.248;2023-05-20T05:20:13;102348.39;;;21.69;40.10
78892;BME280;68368;51.728;5.248;2023-05-20T05:22:16;102348.77;;;21.90;40.48
78892;BME280;68368;51.728;5.248;2023-05-20T05:24:20;102350.54;;;22.24;40.00
78892;BME280;68368;51.728;5.248;2023-05-20T05:26:23;102348.13;;;22.61;38.84
78892;BME280;68368;51.728;5.248;2023-05-20T05:28:26;102349.25;;;22.84;37.85
78892;BME280;68368;51.728;5.248;2023-05-20T05:30:29;102345.41;;;23.00;37.72
78892;BME280;68368;51.728;5.248;2023-05-20T05:32:33;102340.41;;;23.31;37.00
78892;BME280;68368;51.728;5.248;2023-05-20T05:34:36;102340.29;;;23.71;36.91
78892;BME280;68368;51.728;5.248;2023-05-20T05:36:40;102343.83;;;24.03;35.70
78892;BME280;68368;51.728;5.248;2023-05-20T05:38:44;102344.83;;;24.14;34.80
78892;BME280;68368;51.728;5.248;2023-05-20T05:40:47;102345.67;;;24.45;35.52
78892;BME280;68368;51.728;5.248;2023-05-20T05:42:50;102341.92;;;24.76;34.21
78892;BME280;68368;51.728;5.248;2023-05-20T05:44:53;102335.92;;;24.92;33.71
78892;BME280;68368;51.728;5.248;2023-05-20T05:46:57;102341.60;;;25.07;33.44
78892;BME280;68368;51.728;5.248;2023-05-20T05:49:00;102341.02;;;25.30;33.46
78892;BME280;68368;51.728;5.248;2023-05-20T05:51:03;102338.63;;;25.65;33.07
78892;BME280;68368;51.728;5.248;2023-05-20T05:53:06;102337.91;;;26.08;32.40
78892;BME280;68368;51.728;5.248;2023-05-20T05:55:34;102338.76;;;26.23;31.23
78892;BME280;68368;51.728;5.248;2023-05-20T05:57:41;102344.58;;;26.20;30.97
78892;BME280;68368;51.728;5.248;2023-05-20T05:59:45;102342.81;;;26.30;31.37
78892;BME280;68368;51.728;5.248;2023-05-20T06:01:52;102338.21;;;26.44;30.43
78892;BME280;68368;51.728;5.248;2023-05-20T06:03:56;102335.23;;;26.49;30.53
78892;BME280;68368;51.728;5.248;2023-05-20T06:05:59;102335.80;;;26.59;30.10
78892;BME280;68368;51.728;5.248;2023-05-20T06:08:03;102334.11;;;26.74;30.45
78892;BME280;68368;51.728;5.248;2023-05-20T06:10:09;102338.81;;;26.97;29.80
78892;BME280;68368;51.728;5.248;2023-05-20T06:12:12;102337.45;;;26.93;29.46
78892;BME280;68368;51.728;5.248;2023-05-20T06:14:15;102340.17;;;26.76;29.53
78892;BME280;68368;51.728;5.248;2023-05-20T06:16:18;102343.48;;;26.59;29.54
78892;BME280;68368;51.728;5.248;2023-05-20T06:18:22;102342.85;;;26.63;29.92
78892;BME280;68368;51.728;5.248;2023-05-20T06:20:25;102346.04;;;26.66;29.82
78892;BME280;68368;51.728;5.248;2023-05-20T06:22:28;102340.96;;;26.85;30.19
78892;BME280;68368;51.728;5.248;2023-05-20T06:24:32;102340.98;;;27.14;29.56
78892;BME280;68368;51.728;5.248;2023-05-20T06:26:36;102340.17;;;27.19;29.11
78892;BME280;68368;51.728;5.248;2023-05-20T06:28:39;102338.98;;;27.01;28.94
78892;BME280;68368;51.728;5.248;2023-05-20T06:30:42;102332.67;;;27.09;29.07
78892;BME280;68368;51.728;5.248;2023-05-20T06:32:46;102329.34;;;27.33;29.93
78892;BME280;68368;51.728;5.248;2023-05-20T06:34:49;102333.48;;;27.78;28.90
78892;BME280;68368;51.728;5.248;2023-05-20T06:36:53;102331.96;;;28.01;28.31
78892;BME280;68368;51.728;5.248;2023-05-20T06:38:57;102329.95;;;28.14;27.68
78892;BME280;68368;51.728;5.248;2023-05-20T06:41:00;102325.79;;;28.01;27.76
78892;BME280;68368;51.728;5.248;2023-05-20T06:43:03;102329.02;;;27.89;27.47
78892;BME280;68368;51.728;5.248;2023-05-20T06:45:08;102323.58;;;27.64;27.77
78892;BME280;68368;51.728;5.248;2023-05-20T06:47:12;102322.09;;;27.39;28.22
78892;BME280;68368;51.728;5.248;2023-05-20T06:49:16;102320.34;;;27.32;28.53
78892;BME280;68368;51.728;5.248;2023-05-20T06:51:19;102315.06;;;27.15;28.41
78892;BME280;68368;51.728;5.248;2023-05-20T06:53:22;102314.75;;;27.24;29.03
78892;BME280;68368;51.728;5.248;2023-05-20T06:55:26;102316.00;;;27.47;28.70
78892;BME280;68368;51.728;5.248;2023-05-20T06:57:29;102313.94;;;27.54;28.26
78892;BME280;68368;51.728;5.248;2023-05-20T06:59:33;102311.16;;;27.58;28.25
78892;BME280;68368;51.728;5.248;2023-05-20T07:01:36;102314.30;;;27.76;28.35
78892;BME280;68368;51.728;5.248;2023-05-20T07:03:44;102313.92;;;27.89;27.73
78892;BME280;68368;51.728;5.248;2023-05-20T07:05:49;102314.85;;;27.98;28.11
78892;BME280;68368;51.728;5.248;2023-05-20T07:07:56;102310.25;;;28.22;27.91
78892;BME280;68368;51.728;5.248;2023-05-20T07:10:01;102313.86;;;28.38;27.51
78892;BME280;68368;51.728;5.248;2023-05-20T07:12:06;102310.42;;;28.50;27.04
78892;BME280;68368;51.728;5.248;2023-05-20T07:14:12;102308.66;;;28.45;27.13
78892;BME280;68368;51.728;5.248;2023-05-20T07:16:18;102311.68;;;28.47;27.30
78892;BME280;68368;51.728;5.248;2023-05-20T07:18:20;102306.13;;;28.60;27.36
78892;BME280;68368;51.728;5.248;2023-05-20T07:20:26;102301.25;;;28.76;27.53
78892;BME280;68368;51.728;5.248;2023-05-20T07:22:29;102299.13;;;28.92;27.27
78892;BME280;68368;51.728;5.248;2023-05-20T07:26:38;102288.56;;;29.20;26.48
78892;BME280;68368;51.728;5.248;2023-05-20T07:28:42;102287.92;;;29.24;26.04
78892;BME280;68368;51.728;5.248;2023-05-20T07:30:47;102288.64;;;29.05;26.21
78892;BME280;68368;51.728;5.248;2023-05-20T07:32:50;102285.65;;;28.94;26.56
78892;BME280;68368;51.728;5.248;2023-05-20T07:34:54;102282.61;;;28.70;26.42
78892;BME280;68368;51.728;5.248;2023-05-20T07:36:57;102282.61;;;28.44;26.35
78892;BME280;68368;51.728;5.248;2023-05-20T07:39:01;102283.59;;;28.10;26.85
78892;BME280;68368;51.728;5.248;2023-05-20T07:41:04;102283.96;;;27.92;27.26
78892;BME280;68368;51.728;5.248;2023-05-20T07:43:08;102287.59;;;27.81;27.59
78892;BME280;68368;51.728;5.248;2023-05-20T07:45:12;102288.86;;;27.55;27.06
78892;BME280;68368;51.728;5.248;2023-05-20T07:47:15;102284.67;;;27.21;27.40
78892;BME280;68368;51.728;5.248;2023-05-20T07:49:18;102277.32;;;27.05;28.03
78892;BME280;68368;51.728;5.248;2023-05-20T07:51:21;102280.73;;;26.90;28.12
78892;BME280;68368;51.728;5.248;2023-05-20T07:53:25;102271.47;;;26.73;28.31
78892;BME280;68368;51.728;5.248;2023-05-20T07:55:29;102270.29;;;26.68;28.78
78892;BME280;68368;51.728;5.248;2023-05-20T07:57:32;102268.30;;;26.58;28.87
78892;BME280;68368;51.728;5.248;2023-05-20T07:59:35;102266.15;;;26.74;29.47
78892;BME280;68368;51.728;5.248;2023-05-20T08:01:39;102269.52;;;26.82;28.48
78892;BME280;68368;51.728;5.248;2023-05-20T08:03:42;102266.70;;;26.74;28.31
78892;BME280;68368;51.728;5.248;2023-05-20T08:05:46;102263.31;;;26.76;28.47
78892;BME280;68368;51.728;5.248;2023-05-20T08:07:49;102265.73;;;26.72;28.40
78892;BME280;68368;51.728;5.248;2023-05-20T08:09:52;102271.45;;;26.67;28.21
78892;BME280;68368;51.728;5.248;2023-05-20T08:11:55;102262.67;;;26.40;28.16
78892;BME280;68368;51.728;5.248;2023-05-20T08:13:58;102262.55;;;26.26;28.69
78892;BME280;68368;51.728;5.248;2023-05-20T08:16:02;102261.64;;;26.18;28.99
78892;BME280;68368;51.728;5.248;2023-05-20T08:18:05;102260.71;;;26.05;28.98
78892;BME280;68368;51.728;5.248;2023-05-20T08:20:10;102264.06;;;25.94;29.38
78892;BME280;68368;51.728;5.248;2023-05-20T08:22:14;102261.80;;;25.98;29.04
78892;BME280;68368;51.728;5.248;2023-05-20T08:24:17;102255.02;;;25.88;28.55
78892;BME280;68368;51.728;5.248;2023-05-20T08:26:20;102248.12;;;25.67;28.82
78892;BME280;68368;51.728;5.248;2023-05-20T08:28:23;102248.64;;;25.64;29.30
78892;BME280;68368;51.728;5.248;2023-05-20T08:30:27;102255.23;;;25.60;29.59
78892;BME280;68368;51.728;5.248;2023-05-20T08:32:31;102251.71;;;25.35;29.32
78892;BME280;68368;51.728;5.248;2023-05-20T08:34:34;102254.45;;;25.09;29.69
78892;BME280;68368;51.728;5.248;2023-05-20T08:36:37;102245.20;;;25.04;30.12
78892;BME280;68368;51.728;5.248;2023-05-20T08:38:40;102252.46;;;25.17;30.27
78892;BME280;68368;51.728;5.248;2023-05-20T08:40:44;102245.42;;;25.11;29.76
78892;BME280;68368;51.728;5.248;2023-05-20T08:42:48;102245.63;;;24.92;29.80
78892;BME280;68368;51.728;5.248;2023-05-20T08:44:53;102239.00;;;24.90;30.22
78892;BME280;68368;51.728;5.248;2023-05-20T08:46:58;102238.20;;;24.80;29.90
78892;BME280;68368;51.728;5.248;2023-05-20T08:49:01;102238.77;;;24.79;29.96
78892;BME280;68368;51.728;5.248;2023-05-20T08:51:07;102233.31;;;24.72;29.86
78892;BME280;68368;51.728;5.248;2023-05-20T08:53:11;102230.58;;;24.72;30.62
78892;BME280;68368;51.728;5.248;2023-05-20T08:55:18;102229.42;;;24.89;30.49
78892;BME280;68368;51.728;5.248;2023-05-20T08:57:25;102227.04;;;24.93;29.84
78892;BME280;68368;51.728;5.248;2023-05-20T08:59:29;102232.70;;;24.92;30.61
78892;BME280;68368;51.728;5.248;2023-05-20T09:01:35;102234.11;;;24.97;30.52
78892;BME280;68368;51.728;5.248;2023-05-20T09:03:41;102233.80;;;25.07;30.34
78892;BME280;68368;51.728;5.248;2023-05-20T09:05:45;102227.47;;;25.03;29.71
78892;BME280;68368;51.728;5.248;2023-05-20T09:07:49;102227.93;;;25.01;29.92
78892;BME280;68368;51.728;5.248;2023-05-20T09:09:52;102223.77;;;24.97;29.77
78892;BME280;68368;51.728;5.248;2023-05-20T09:11:56;102219.13;;;24.91;29.62
78892;BME280;68368;51.728;5.248;2023-05-20T09:13:59;102225.46;;;24.77;29.57
78892;BME280;68368;51.728;5.248;2023-05-20T09:16:05;102221.75;;;24.63;29.89
78892;BME280;68368;51.728;5.248;2023-05-20T09:18:08;102226.57;;;24.57;30.06
78892;BME280;68368;51.728;5.248;2023-05-20T09:20:12;102220.67;;;24.43;30.38
78892;BME280;68368;51.728;5.248;2023-05-20T09:22:22;102222.95;;;24.49;30.76
78892;BME280;68368;51.728;5.248;2023-05-20T09:24:26;102222.41;;;24.49;30.26
78892;BME280;68368;51.728;5.248;2023-05-20T09:26:30;102216.76;;;24.33;30.06
78892;BME280;68368;51.728;5.248;2023-05-20T09:28:33;102216.11;;;24.28;30.28
78892;BME280;68368;51.728;5.248;2023-05-20T09:30:36;102214.29;;;24.20;29.84
78892;BME280;68368;51.728;5.248;2023-05-20T09:32:39;102216.84;;;24.03;29.79
78892;BME280;68368;51.728;5.248;2023-05-20T09:34:42;102218.14;;;23.86;30.55
78892;BME280;68368;51.728;5.248;2023-05-20T09:36:48;102213.34;;;23.75;30.55
78892;BME280;68368;51.728;5.248;2023-05-20T09:38:53;102208.58;;;23.64;30.91
78892;BME280;68368;51.728;5.248;2023-05-20T09:41:00;102208.89;;;23.64;31.44
78892;BME280;68368;51.728;5.248;2023-05-20T09:43:05;102211.34;;;23.67;31.27
78892;BME280;68368;51.728;5.248;2023-05-20T09:45:09;102213.91;;;23.49;31.37
78892;BME280;68368;51.728;5.248;2023-05-20T09:47:13;102210.06;;;23.50;31.64
78892;BME280;68368;51.728;5.248;2023-05-20T09:49:17;102213.80;;;23.56;31.48
78892;BME280;68368;51.728;5.248;2023-05-20T09:51:22;102209.52;;;23.59;30.96
78892;BME280;68368;51.728;5.248;2023-05-20T09:53:28;102207.42;;;23.61;31.33
78892;BME280;68368;51.728;5.248;2023-05-20T09:55:31;102205.33;;;23.63;30.80
78892;BME280;68368;51.728;5.248;2023-05-20T09:57:36;102209.36;;;23.58;30.79
78892;BME280;68368;51.728;5.248;2023-05-20T09:59:40;102199.42;;;23.65;30.77
78892;BME280;68368;51.728;5.248;2023-05-20T10:01:44;102199.98;;;23.74;30.83
78892;BME280;68368;51.728;5.248;2023-05-20T10:03:47;102201.30;;;23.64;30.58
78892;BME280;68368;51.728;5.248;2023-05-20T10:08:47;102200.44;;;23.50;31.15
78892;BME280;68368;51.728;5.248;2023-05-20T10:11:04;102202.86;;;23.49;31.42
78892;BME280;68368;51.728;5.248;2023-05-20T10:13:18;102199.98;;;23.44;31.18
78892;BME280;68368;51.728;5.248;2023-05-20T10:15:32;102197.63;;;23.22;31.41
78892;BME280;68368;51.728;5.248;2023-05-20T10:17:47;102198.98;;;23.02;31.75
78892;BME280;68368;51.728;5.248;2023-05-20T10:19:59;102193.25;;;23.06;32.41
78892;BME280;68368;51.728;5.248;2023-05-20T10:22:05;102190.77;;;23.00;31.70
78892;BME280;68368;51.728;5.248;2023-05-20T10:24:10;102185.77;;;23.07;32.00
78892;BME280;68368;51.728;5.248;2023-05-20T10:26:13;102193.58;;;23.24;32.29
78892;BME280;68368;51.728;5.248;2023-05-20T10:28:16;102185.13;;;23.31;32.06
78892;BME280;68368;51.728;5.248;2023-05-20T10:30:26;102189.58;;;23.41;32.30
78892;BME280;68368;51.728;5.248;2023-05-20T10:32:31;102183.34;;;23.47;32.15
78892;BME280;68368;51.728;5.248;2023-05-20T10:34:45;102177.05;;;23.55;31.94
78892;BME280;68368;51.728;5.248;2023-05-20T10:39:27;102183.18;;;23.85;31.50
78892;BME280;68368;51.728;5.248;2023-05-20T10:41:31;102178.88;;;23.71;31.28
78892;BME280;68368;51.728;5.248;2023-05-20T10:43:34;102166.17;;;23.67;31.94
78892;BME280;68368;51.728;5.248;2023-05-20T10:45:48;102162.35;;;23.77;32.84
78892;BME280;68368;51.728;5.248;2023-05-20T10:47:57;102157.48;;;24.04;33.05
78892;BME280;68368;51.728;5.248;2023-05-20T10:50:00;102154.53;;;24.05;31.54
78892;BME280;68368;51.728;5.248;2023-05-20T10:52:05;102151.66;;;24.04;32.31
78892;BME280;68368;51.728;5.248;2023-05-20T10:54:10;102152.65;;;24.10;32.72
78892;BME280;68368;51.728;5.248;2023-05-20T10:56:18;102156.22;;;24.08;32.28